sensor_id;sensor_type;location;lat;lon;timestamp;temperature;humidity
26691;DHT22;14307;51.718;8.938;2023-02-13T00:01:05;6.70;99.90
26691;DHT22;14307;51.718;8.938;2023-02-13T00:03:31;6.60;99.90
26691;DHT22;14307;51.718;8.938;2023-02-13T00:05:58;6.60;99.90
26691;DHT22;14307;51.718;8.938;2023-02-13T00:08:25;6.40;99.90
26691;DHT22;14307;51.718;8.938;2023-02-13T00:10:51;6.50;99.90
26691;DHT22;14307;51.718;8.938;2023-02-13T00:13:18;6.50;99.90
26691;DHT22;14307;51.718;8.938;2023-02-13T00:15:45;6.50;99.90
26691;DHT22;14307;51.718;8.938;2023-02-13T00:18:11;6.50;99.90
26691;DHT22;14307;51.718;8.938;2023-02-13T00:20:38;6.40;99.90
26691;DHT22;14307;51.718;8.938;2023-02-13T00:23:05;6.40;99.90
26691;DHT22;14307;51.718;8.938;2023-02-13T00:25:32;6.50;99.90
26691;DHT22;14307;51.718;8.938;2023-02-13T00:27:58;6.50;99.90
26691;DHT22;14307;51.718;8.938;2023-02-13T00:30:26;6.40;99.90
26691;DHT22;14307;51.718;8.938;2023-02-13T00:32:52;6.40;99.90
26691;DHT22;14307;51.718;8.938;2023-02-13T00:35:22;6.50;99.90
26691;DHT22;14307;51.718;8.938;2023-02-13T00:37:54;6.50;99.90
26691;DHT22;14307;51.718;8.938;2023-02-13T00:40:23;6.50;99.90
26691;DHT22;14307;51.718;8.938;2023-02-13T00:42:49;6.60;99.90
26691;DHT22;14307;51.718;8.938;2023-02-13T00:45:16;6.60;99.90
26691;DHT22;14307;51.718;8.938;2023-02-13T00:47:43;6.60;99.90
26691;DHT22;14307;51.718;8.938;2023-02-13T00:50:09;6.60;99.90
26691;DHT22;14307;51.718;8.938;2023-02-13T00:52:36;6.50;99.90
26691;DHT22;14307;51.718;8.938;2023-02-13T00:55:02;6.50;99.90
26691;DHT22;14307;51.718;8.938;2023-02-13T00:57:29;6.40;99.90
26691;DHT22;14307;51.718;8.938;2023-02-13T00:59:57;6.50;99.90
26691;DHT22;14307;51.718;8.938;2023-02-13T01:02:24;6.50;99.90
26691;DHT22;14307;51.718;8.938;2023-02-13T01:04:50;6.40;99.90
26691;DHT22;14307;51.718;8.938;2023-02-13T01:07:17;6.40;99.90
26691;DHT22;14307;51.718;8.938;2023-02-13T01:09:44;6.40;99.90
26691;DHT22;14307;51.718;8.938;2023-02-13T01:12:10;6.50;99.90
26691;DHT22;14307;51.718;8.938;2023-02-13T01:14:37;6.50;99.90
26691;DHT22;14307;51.718;8.938;2023-02-13T01:17:03;6.50;99.90
26691;DHT22;14307;51.718;8.938;2023-02-13T01:19:30;6.50;99.90
26691;DHT22;14307;51.718;8.938;2023-02-13T01:21:58;6.40;99.90
26691;DHT22;14307;51.718;8.938;2023-02-13T01:24:24;6.30;99.90
26691;DHT22;14307;51.718;8.938;2023-02-13T01:26:56;6.30;99.90
26691;DHT22;14307;51.718;8.938;2023-02-13T01:29:23;6.20;99.90
26691;DHT22;14307;51.718;8.938;2023-02-13T01:31:49;6.10;99.90
26691;DHT22;14307;51.718;8.938;2023-02-13T01:34:16;6.10;99.90
26691;DHT22;14307;51.718;8.938;2023-02-13T01:36:43;6.10;99.90
26691;DHT22;14307;51.718;8.938;2023-02-13T01:39:10;6.10;99.90
26691;DHT22;14307;51.718;8.938;2023-02-13T01:41:37;6.10;99.90
26691;DHT22;14307;51.718;8.938;2023-02-13T01:44:43;6.10;99.90
26691;DHT22;14307;51.718;8.938;2023-02-13T01:46:50;6.00;99.90
26691;DHT22;14307;51.718;8.938;2023-02-13T01:49:17;6.00;99.90
26691;DHT22;14307;51.718;8.938;2023-02-13T01:51:46;6.00;99.90
26691;DHT22;14307;51.718;8.938;2023-02-13T01:54:15;5.90;99.90
26691;DHT22;14307;51.718;8.938;2023-02-13T01:56:45;5.90;99.90
26691;DHT22;14307;51.718;8.938;2023-02-13T01:59:36;5.90;99.90
26691;DHT22;14307;51.718;8.938;2023-02-13T02:02:00;5.80;99.90
26691;DHT22;14307;51.718;8.938;2023-02-13T02:04:29;5.90;99.90
26691;DHT22;14307;51.718;8.938;2023-02-13T02:07:00;5.90;99.90
26691;DHT22;14307;51.718;8.938;2023-02-13T02:09:33;5.70;99.90
26691;DHT22;14307;51.718;8.938;2023-02-13T02:14:36;5.60;99.90
26691;DHT22;14307;51.718;8.938;2023-02-13T02:17:06;5.60;99.90
26691;DHT22;14307;51.718;8.938;2023-02-13T02:19:35;5.60;99.90
26691;DHT22;14307;51.718;8.938;2023-02-13T02:32:24;5.70;99.90
26691;DHT22;14307;51.718;8.938;2023-02-13T02:34:59;5.70;99.90
26691;DHT22;14307;51.718;8.938;2023-02-13T02:42:31;5.80;99.90
26691;DHT22;14307;51.718;8.938;2023-02-13T02:45:11;5.80;99.90
26691;DHT22;14307;51.718;8.938;2023-02-13T02:47:50;5.80;99.90
26691;DHT22;14307;51.718;8.938;2023-02-13T02:53:30;5.80;99.90
26691;DHT22;14307;51.718;8.938;2023-02-13T02:56:13;5.80;99.90
26691;DHT22;14307;51.718;8.938;2023-02-13T02:58:46;5.80;99.90
26691;DHT22;14307;51.718;8.938;2023-02-13T03:01:33;5.80;99.90
26691;DHT22;14307;51.718;8.938;2023-02-13T03:04:29;5.80;99.90
26691;DHT22;14307;51.718;8.938;2023-02-13T03:07:17;5.90;99.90
26691;DHT22;14307;51.718;8.938;2023-02-13T03:09:45;5.90;99.90
26691;DHT22;14307;51.718;8.938;2023-02-13T03:12:40;5.90;99.90
26691;DHT22;14307;51.718;8.938;2023-02-13T03:15:27;5.90;99.90
26691;DHT22;14307;51.718;8.938;2023-02-13T03:17:54;5.90;99.90
26691;DHT22;14307;51.718;8.938;2023-02-13T03:20:54;5.90;99.90
26691;DHT22;14307;51.718;8.938;2023-02-13T03:26:47;5.80;99.90
26691;DHT22;14307;51.718;8.938;2023-02-13T03:29:27;5.80;99.90
26691;DHT22;14307;51.718;8.938;2023-02-13T03:32:27;5.80;99.90
26691;DHT22;14307;51.718;8.938;2023-02-13T03:38:01;5.90;99.90
26691;DHT22;14307;51.718;8.938;2023-02-13T03:40:40;5.90;99.90
26691;DHT22;14307;51.718;8.938;2023-02-13T03:43:32;5.90;99.90
26691;DHT22;14307;51.718;8.938;2023-02-13T03:46:01;5.80;99.90
26691;DHT22;14307;51.718;8.938;2023-02-13T03:48:30;5.80;99.90
26691;DHT22;14307;51.718;8.938;2023-02-13T03:51:18;5.80;99.90
26691;DHT22;14307;51.718;8.938;2023-02-13T03:53:47;5.80;99.90
26691;DHT22;14307;51.718;8.938;2023-02-13T03:56:15;5.80;99.90
26691;DHT22;14307;51.718;8.938;2023-02-13T03:59:02;5.80;99.90
26691;DHT22;14307;51.718;8.938;2023-02-13T04:01:39;5.80;99.90
26691;DHT22;14307;51.718;8.938;2023-02-13T04:04:28;5.90;99.90
26691;DHT22;14307;51.718;8.938;2023-02-13T04:07:06;5.80;99.90
26691;DHT22;14307;51.718;8.938;2023-02-13T04:09:37;5.80;99.90
26691;DHT22;14307;51.718;8.938;2023-02-13T04:12:08;5.80;99.90
26691;DHT22;14307;51.718;8.938;2023-02-13T04:14:39;5.80;99.90
26691;DHT22;14307;51.718;8.938;2023-02-13T04:17:15;5.80;99.90
26691;DHT22;14307;51.718;8.938;2023-02-13T04:19:43;5.80;99.90
26691;DHT22;14307;51.718;8.938;2023-02-13T04:22:10;5.70;99.90
26691;DHT22;14307;51.718;8.938;2023-02-13T04:24:37;5.80;99.90
26691;DHT22;14307;51.718;8.938;2023-02-13T04:27:04;5.80;99.90
26691;DHT22;14307;51.718;8.938;2023-02-13T04:29:31;5.70;99.90
26691;DHT22;14307;51.718;8.938;2023-02-13T04:31:57;5.80;99.90
26691;DHT22;14307;51.718;8.938;2023-02-13T04:34:24;5.80;99.90
26691;DHT22;14307;51.718;8.938;2023-02-13T04:36:50;5.80;99.90
26691;DHT22;14307;51.718;8.938;2023-02-13T04:39:17;5.80;99.90
26691;DHT22;14307;51.718;8.938;2023-02-13T04:41:44;5.80;99.90
26691;DHT22;14307;51.718;8.938;2023-02-13T04:44:11;5.80;99.90
26691;DHT22;14307;51.718;8.938;2023-02-13T04:46:37;5.80;99.90
26691;DHT22;14307;51.718;8.938;2023-02-13T04:49:04;5.80;99.90
26691;DHT22;14307;51.718;8.938;2023-02-13T04:51:31;5.70;99.90
26691;DHT22;14307;51.718;8.938;2023-02-13T04:53:57;5.80;99.90
26691;DHT22;14307;51.718;8.938;2023-02-13T04:56:24;5.60;99.90
26691;DHT22;14307;51.718;8.938;2023-02-13T04:58:50;5.60;99.90
26691;DHT22;14307;51.718;8.938;2023-02-13T05:01:17;5.50;99.90
26691;DHT22;14307;51.718;8.938;2023-02-13T05:03:44;5.50;99.90
26691;DHT22;14307;51.718;8.938;2023-02-13T05:06:11;5.50;99.90
26691;DHT22;14307;51.718;8.938;2023-02-13T05:08:37;5.40;99.90
26691;DHT22;14307;51.718;8.938;2023-02-13T05:11:04;5.50;99.90
26691;DHT22;14307;51.718;8.938;2023-02-13T05:13:31;5.40;99.90
26691;DHT22;14307;51.718;8.938;2023-02-13T05:15:58;5.40;99.90
26691;DHT22;14307;51.718;8.938;2023-02-13T05:18:24;5.50;99.90
26691;DHT22;14307;51.718;8.938;2023-02-13T05:20:51;5.40;99.90
26691;DHT22;14307;51.718;8.938;2023-02-13T05:23:36;5.50;99.90
26691;DHT22;14307;51.718;8.938;2023-02-13T05:26:03;5.50;99.90
26691;DHT22;14307;51.718;8.938;2023-02-13T05:28:30;5.40;99.90
26691;DHT22;14307;51.718;8.938;2023-02-13T05:31:16;5.40;99.90
26691;DHT22;14307;51.718;8.938;2023-02-13T05:33:42;5.20;99.90
26691;DHT22;14307;51.718;8.938;2023-02-13T05:36:09;5.10;99.90
26691;DHT22;14307;51.718;8.938;2023-02-13T05:38:35;5.00;99.90
26691;DHT22;14307;51.718;8.938;2023-02-13T05:41:02;5.00;99.90
26691;DHT22;14307;51.718;8.938;2023-02-13T05:43:29;4.90;99.90
26691;DHT22;14307;51.718;8.938;2023-02-13T05:46:05;5.00;99.90
26691;DHT22;14307;51.718;8.938;2023-02-13T05:48:33;5.00;99.90
26691;DHT22;14307;51.718;8.938;2023-02-13T05:51:00;5.00;99.90
26691;DHT22;14307;51.718;8.938;2023-02-13T05:53:26;5.00;99.90
26691;DHT22;14307;51.718;8.938;2023-02-13T05:55:55;5.00;99.90
26691;DHT22;14307;51.718;8.938;2023-02-13T05:58:21;5.00;99.90
26691;DHT22;14307;51.718;8.938;2023-02-13T06:00:48;5.00;99.90
26691;DHT22;14307;51.718;8.938;2023-02-13T06:03:15;5.00;99.90
26691;DHT22;14307;51.718;8.938;2023-02-13T06:05:41;5.00;99.90
26691;DHT22;14307;51.718;8.938;2023-02-13T06:08:08;5.00;99.90
26691;DHT22;14307;51.718;8.938;2023-02-13T06:10:35;5.00;99.90
26691;DHT22;14307;51.718;8.938;2023-02-13T06:13:02;4.90;99.90
26691;DHT22;14307;51.718;8.938;2023-02-13T06:15:28;4.90;99.90
26691;DHT22;14307;51.718;8.938;2023-02-13T06:17:55;4.90;99.90
26691;DHT22;14307;51.718;8.938;2023-02-13T06:20:21;4.90;99.90
26691;DHT22;14307;51.718;8.938;2023-02-13T06:22:51;4.90;99.90
26691;DHT22;14307;51.718;8.938;2023-02-13T06:25:18;5.00;99.90
26691;DHT22;14307;51.718;8.938;2023-02-13T06:27:45;4.90;99.90
26691;DHT22;14307;51.718;8.938;2023-02-13T06:30:12;4.90;99.90
26691;DHT22;14307;51.718;8.938;2023-02-13T06:32:39;5.00;99.90
26691;DHT22;14307;51.718;8.938;2023-02-13T06:35:06;5.00;99.90
26691;DHT22;14307;51.718;8.938;2023-02-13T06:37:34;5.00;99.90
26691;DHT22;14307;51.718;8.938;2023-02-13T06:40:01;5.00;99.90
26691;DHT22;14307;51.718;8.938;2023-02-13T06:42:27;5.00;99.90
26691;DHT22;14307;51.718;8.938;2023-02-13T06:44:54;5.00;99.90
26691;DHT22;14307;51.718;8.938;2023-02-13T06:47:20;5.00;99.90
26691;DHT22;14307;51.718;8.938;2023-02-13T06:49:47;5.00;99.90
26691;DHT22;14307;51.718;8.938;2023-02-13T06:52:14;5.00;99.90
26691;DHT22;14307;51.718;8.938;2023-02-13T06:54:40;5.00;99.90
26691;DHT22;14307;51.718;8.938;2023-02-13T06:57:14;5.00;99.90
26691;DHT22;14307;51.718;8.938;2023-02-13T06:59:40;5.00;99.90
26691;DHT22;14307;51.718;8.938;2023-02-13T07:02:08;5.10;99.90
26691;DHT22;14307;51.718;8.938;2023-02-13T07:04:35;5.10;99.90
26691;DHT22;14307;51.718;8.938;2023-02-13T07:07:02;5.10;99.90
26691;DHT22;14307;51.718;8.938;2023-02-13T07:09:29;5.20;99.90
26691;DHT22;14307;51.718;8.938;2023-02-13T07:11:56;5.20;99.90
26691;DHT22;14307;51.718;8.938;2023-02-13T07:14:23;5.20;99.90
26691;DHT22;14307;51.718;8.938;2023-02-13T07:16:49;5.20;99.90
26691;DHT22;14307;51.718;8.938;2023-02-13T07:19:16;5.30;99.90
26691;DHT22;14307;51.718;8.938;2023-02-13T07:21:43;5.40;99.90
26691;DHT22;14307;51.718;8.938;2023-02-13T07:24:09;5.30;99.90
26691;DHT22;14307;51.718;8.938;2023-02-13T07:26:36;5.30;99.90
26691;DHT22;14307;51.718;8.938;2023-02-13T07:29:02;5.40;99.90
26691;DHT22;14307;51.718;8.938;2023-02-13T07:31:37;5.30;99.90
26691;DHT22;14307;51.718;8.938;2023-02-13T07:34:05;5.30;99.90
26691;DHT22;14307;51.718;8.938;2023-02-13T07:36:32;5.30;99.90
26691;DHT22;14307;51.718;8.938;2023-02-13T07:38:58;5.30;99.90
26691;DHT22;14307;51.718;8.938;2023-02-13T07:41:25;5.30;99.90
26691;DHT22;14307;51.718;8.938;2023-02-13T07:43:52;5.30;99.90
26691;DHT22;14307;51.718;8.938;2023-02-13T07:46:19;5.30;99.90
26691;DHT22;14307;51.718;8.938;2023-02-13T07:48:45;5.30;99.90
26691;DHT22;14307;51.718;8.938;2023-02-13T07:51:12;5.30;99.90
26691;DHT22;14307;51.718;8.938;2023-02-13T07:53:39;5.40;99.90
26691;DHT22;14307;51.718;8.938;2023-02-13T07:56:06;5.40;99.90
26691;DHT22;14307;51.718;8.938;2023-02-13T07:58:33;5.40;99.90
26691;DHT22;14307;51.718;8.938;2023-02-13T08:01:04;5.30;99.90
26691;DHT22;14307;51.718;8.938;2023-02-13T08:03:31;5.30;99.90
26691;DHT22;14307;51.718;8.938;2023-02-13T08:05:57;5.30;99.90
26691;DHT22;14307;51.718;8.938;2023-02-13T08:08:24;5.30;99.90
26691;DHT22;14307;51.718;8.938;2023-02-13T08:10:51;5.30;99.90
26691;DHT22;14307;51.718;8.938;2023-02-13T08:13:36;5.40;99.90
26691;DHT22;14307;51.718;8.938;2023-02-13T08:16:03;5.40;99.90
26691;DHT22;14307;51.718;8.938;2023-02-13T08:18:30;5.40;99.90
26691;DHT22;14307;51.718;8.938;2023-02-13T08:20:57;5.40;99.90
26691;DHT22;14307;51.718;8.938;2023-02-13T08:23:24;5.40;99.90
26691;DHT22;14307;51.718;8.938;2023-02-13T08:25:50;5.30;99.90
26691;DHT22;14307;51.718;8.938;2023-02-13T08:28:19;5.40;99.90
26691;DHT22;14307;51.718;8.938;2023-02-13T08:30:45;5.30;99.90
26691;DHT22;14307;51.718;8.938;2023-02-13T08:33:12;5.40;99.90
26691;DHT22;14307;51.718;8.938;2023-02-13T08:35:38;5.50;99.90
26691;DHT22;14307;51.718;8.938;2023-02-13T08:38:05;5.60;99.90
26691;DHT22;14307;51.718;8.938;2023-02-13T08:40:32;5.60;99.90
26691;DHT22;14307;51.718;8.938;2023-02-13T08:43:00;5.70;99.90
26691;DHT22;14307;51.718;8.938;2023-02-13T08:45:27;5.60;99.90
26691;DHT22;14307;51.718;8.938;2023-02-13T08:47:54;5.50;99.90
26691;DHT22;14307;51.718;8.938;2023-02-13T08:50:21;5.50;99.90
26691;DHT22;14307;51.718;8.938;2023-02-13T08:52:48;5.50;99.90
26691;DHT22;14307;51.718;8.938;2023-02-13T08:55:14;5.70;99.90
26691;DHT22;14307;51.718;8.938;2023-02-13T08:57:41;5.60;99.90
26691;DHT22;14307;51.718;8.938;2023-02-13T09:00:07;5.60;99.90
26691;DHT22;14307;51.718;8.938;2023-02-13T09:02:34;5.70;99.90
26691;DHT22;14307;51.718;8.938;2023-02-13T09:05:01;5.70;99.90
26691;DHT22;14307;51.718;8.938;2023-02-13T09:07:27;5.70;99.90
26691;DHT22;14307;51.718;8.938;2023-02-13T09:09:54;5.70;99.90
26691;DHT22;14307;51.718;8.938;2023-02-13T09:12:21;5.80;99.90
26691;DHT22;14307;51.718;8.938;2023-02-13T09:14:47;5.80;99.90
26691;DHT22;14307;51.718;8.938;2023-02-13T09:17:14;5.90;99.90
26691;DHT22;14307;51.718;8.938;2023-02-13T09:19:43;5.90;99.90
26691;DHT22;14307;51.718;8.938;2023-02-13T09:22:12;5.90;99.90
26691;DHT22;14307;51.718;8.938;2023-02-13T09:24:38;5.90;99.90
26691;DHT22;14307;51.718;8.938;2023-02-13T09:27:05;5.90;99.90
26691;DHT22;14307;51.718;8.938;2023-02-13T09:29:33;5.90;99.90
26691;DHT22;14307;51.718;8.938;2023-02-13T09:31:59;5.80;99.90
26691;DHT22;14307;51.718;8.938;2023-02-13T09:34:26;5.80;99.90
26691;DHT22;14307;51.718;8.938;2023-02-13T09:36:53;5.80;99.90
26691;DHT22;14307;51.718;8.938;2023-02-13T09:39:20;5.90;99.90
26691;DHT22;14307;51.718;8.938;2023-02-13T09:41:47;6.10;99.90
26691;DHT22;14307;51.718;8.938;2023-02-13T09:47:25;6.30;99.90
26691;DHT22;14307;51.718;8.938;2023-02-13T09:52:32;6.50;99.90
26691;DHT22;14307;51.718;8.938;2023-02-13T09:55:03;6.40;99.90
26691;DHT22;14307;51.718;8.938;2023-02-13T09:57:41;6.40;99.90
26691;DHT22;14307;51.718;8.938;2023-02-13T10:00:20;6.30;99.90
26691;DHT22;14307;51.718;8.938;2023-02-13T10:02:51;6.20;99.90
26691;DHT22;14307;51.718;8.938;2023-02-13T10:08:11;6.10;99.90
26691;DHT22;14307;51.718;8.938;2023-02-13T10:10:49;6.20;99.90
26691;DHT22;14307;51.718;8.938;2023-02-13T10:15:47;6.70;99.90
26691;DHT22;14307;51.718;8.938;2023-02-13T10:18:18;6.70;99.90
26691;DHT22;14307;51.718;8.938;2023-02-13T10:20:47;6.70;99.90
26691;DHT22;14307;51.718;8.938;2023-02-13T10:26:01;6.80;99.90
26691;DHT22;14307;51.718;8.938;2023-02-13T10:31:38;6.60;99.90
26691;DHT22;14307;51.718;8.938;2023-02-13T10:34:05;6.50;99.90
26691;DHT22;14307;51.718;8.938;2023-02-13T10:36:36;6.50;99.90
26691;DHT22;14307;51.718;8.938;2023-02-13T10:44:02;6.80;99.90
26691;DHT22;14307;51.718;8.938;2023-02-13T10:46:54;6.70;99.90
26691;DHT22;14307;51.718;8.938;2023-02-13T10:49:27;6.70;99.90
26691;DHT22;14307;51.718;8.938;2023-02-13T10:52:09;7.10;99.90
26691;DHT22;14307;51.718;8.938;2023-02-13T10:54:53;7.10;99.90
26691;DHT22;14307;51.718;8.938;2023-02-13T10:57:42;7.00;99.90
26691;DHT22;14307;51.718;8.938;2023-02-13T11:02:42;6.90;99.90
26691;DHT22;14307;51.718;8.938;2023-02-13T11:05:13;7.10;99.90
26691;DHT22;14307;51.718;8.938;2023-02-13T11:09:40;7.00;99.90
26691;DHT22;14307;51.718;8.938;2023-02-13T11:14:57;7.00;99.90
26691;DHT22;14307;51.718;8.938;2023-02-13T11:17:27;7.10;99.90
26691;DHT22;14307;51.718;8.938;2023-02-13T11:19:57;7.10;99.90
26691;DHT22;14307;51.718;8.938;2023-02-13T11:22:39;7.10;99.90
26691;DHT22;14307;51.718;8.938;2023-02-13T11:25:23;7.00;99.90
26691;DHT22;14307;51.718;8.938;2023-02-13T11:28:03;7.20;99.90
26691;DHT22;14307;51.718;8.938;2023-02-13T11:30:35;7.50;99.90
26691;DHT22;14307;51.718;8.938;2023-02-13T11:33:25;7.70;99.90
26691;DHT22;14307;51.718;8.938;2023-02-13T11:36:09;7.70;99.90
26691;DHT22;14307;51.718;8.938;2023-02-13T11:38:36;7.80;99.90
26691;DHT22;14307;51.718;8.938;2023-02-13T11:41:14;7.80;99.90
26691;DHT22;14307;51.718;8.938;2023-02-13T11:43:49;7.90;99.90
26691;DHT22;14307;51.718;8.938;2023-02-13T11:46:24;7.90;99.90
26691;DHT22;14307;51.718;8.938;2023-02-13T11:49:04;7.90;99.90
26691;DHT22;14307;51.718;8.938;2023-02-13T11:51:58;7.90;99.90
26691;DHT22;14307;51.718;8.938;2023-02-13T11:54:42;8.00;99.90
26691;DHT22;14307;51.718;8.938;2023-02-13T11:57:21;8.10;99.90
26691;DHT22;14307;51.718;8.938;2023-02-13T11:59:50;8.30;99.90
26691;DHT22;14307;51.718;8.938;2023-02-13T12:02:42;8.70;99.90
26691;DHT22;14307;51.718;8.938;2023-02-13T12:05:23;8.80;99.90
26691;DHT22;14307;51.718;8.938;2023-02-13T12:07:51;9.10;99.90
26691;DHT22;14307;51.718;8.938;2023-02-13T12:15:21;9.10;99.90
26691;DHT22;14307;51.718;8.938;2023-02-13T12:18:02;9.00;99.90
26691;DHT22;14307;51.718;8.938;2023-02-13T12:20:42;9.30;99.90
26691;DHT22;14307;51.718;8.938;2023-02-13T12:29:07;9.10;99.90
26691;DHT22;14307;51.718;8.938;2023-02-13T12:34:54;8.70;99.90
26691;DHT22;14307;51.718;8.938;2023-02-13T12:37:34;8.60;99.90
26691;DHT22;14307;51.718;8.938;2023-02-13T12:46:21;8.60;99.90
26691;DHT22;14307;51.718;8.938;2023-02-13T12:51:44;9.00;99.90
26691;DHT22;14307;51.718;8.938;2023-02-13T12:57:44;9.00;99.90
26691;DHT22;14307;51.718;8.938;2023-02-13T13:00:59;9.10;99.90
26691;DHT22;14307;51.718;8.938;2023-02-13T13:06:41;9.40;99.90
26691;DHT22;14307;51.718;8.938;2023-02-13T13:09:39;9.50;99.90
26691;DHT22;14307;51.718;8.938;2023-02-13T13:17:38;9.50;99.90
26691;DHT22;14307;51.718;8.938;2023-02-13T13:28:04;9.80;99.90
26691;DHT22;14307;51.718;8.938;2023-02-13T13:30:34;9.90;99.90
26691;DHT22;14307;51.718;8.938;2023-02-13T13:33:22;10.10;99.90
26691;DHT22;14307;51.718;8.938;2023-02-13T13:36:08;10.10;99.90
26691;DHT22;14307;51.718;8.938;2023-02-13T13:39:05;10.20;99.90
26691;DHT22;14307;51.718;8.938;2023-02-13T13:41:46;10.40;99.90
26691;DHT22;14307;51.718;8.938;2023-02-13T13:47:08;10.00;99.90
26691;DHT22;14307;51.718;8.938;2023-02-13T13:49:45;10.30;99.90
26691;DHT22;14307;51.718;8.938;2023-02-13T13:54:49;10.50;99.90
26691;DHT22;14307;51.718;8.938;2023-02-13T13:57:26;9.90;99.90
26691;DHT22;14307;51.718;8.938;2023-02-13T14:00:38;9.90;99.90
26691;DHT22;14307;51.718;8.938;2023-02-13T14:06:00;10.00;99.90
26691;DHT22;14307;51.718;8.938;2023-02-13T14:11:30;9.90;99.90
26691;DHT22;14307;51.718;8.938;2023-02-13T14:13:58;9.90;99.90
26691;DHT22;14307;51.718;8.938;2023-02-13T14:16:44;10.00;99.90
26691;DHT22;14307;51.718;8.938;2023-02-13T14:19:39;10.00;99.90
26691;DHT22;14307;51.718;8.938;2023-02-13T14:22:30;10.20;99.90
26691;DHT22;14307;51.718;8.938;2023-02-13T14:25:02;10.30;99.90
26691;DHT22;14307;51.718;8.938;2023-02-13T14:27:36;10.10;99.90
26691;DHT22;14307;51.718;8.938;2023-02-13T14:30:28;10.10;99.90
26691;DHT22;14307;51.718;8.938;2023-02-13T14:32:58;10.10;99.90
26691;DHT22;14307;51.718;8.938;2023-02-13T14:35:28;9.90;99.90
26691;DHT22;14307;51.718;8.938;2023-02-13T14:37:58;9.80;99.90
26691;DHT22;14307;51.718;8.938;2023-02-13T14:40:27;9.60;99.90
26691;DHT22;14307;51.718;8.938;2023-02-13T14:42:59;9.60;99.90
26691;DHT22;14307;51.718;8.938;2023-02-13T14:45:40;9.60;99.90
26691;DHT22;14307;51.718;8.938;2023-02-13T14:48:12;9.50;99.90
26691;DHT22;14307;51.718;8.938;2023-02-13T14:50:45;9.50;99.90
26691;DHT22;14307;51.718;8.938;2023-02-13T14:53:29;9.40;99.90
26691;DHT22;14307;51.718;8.938;2023-02-13T14:56:11;9.40;99.90
26691;DHT22;14307;51.718;8.938;2023-02-13T14:58:47;9.50;99.90
26691;DHT22;14307;51.718;8.938;2023-02-13T15:01:30;9.60;99.90
26691;DHT22;14307;51.718;8.938;2023-02-13T15:04:09;9.50;99.90
26691;DHT22;14307;51.718;8.938;2023-02-13T15:06:42;9.40;99.90
26691;DHT22;14307;51.718;8.938;2023-02-13T15:11:46;9.40;99.90
26691;DHT22;14307;51.718;8.938;2023-02-13T15:17:03;9.40;99.90
26691;DHT22;14307;51.718;8.938;2023-02-13T15:19:34;9.40;99.90
26691;DHT22;14307;51.718;8.938;2023-02-13T15:22:03;9.40;99.90
26691;DHT22;14307;51.718;8.938;2023-02-13T15:24:44;9.30;99.90
26691;DHT22;14307;51.718;8.938;2023-02-13T15:27:27;9.30;99.90
26691;DHT22;14307;51.718;8.938;2023-02-13T15:30:04;9.20;99.90
26691;DHT22;14307;51.718;8.938;2023-02-13T15:32:40;9.20;99.90
26691;DHT22;14307;51.718;8.938;2023-02-13T15:35:29;9.20;99.90
26691;DHT22;14307;51.718;8.938;2023-02-13T15:37:57;9.20;99.90
26691;DHT22;14307;51.718;8.938;2023-02-13T15:40:27;9.20;99.90
26691;DHT22;14307;51.718;8.938;2023-02-13T15:42:55;9.20;99.90
26691;DHT22;14307;51.718;8.938;2023-02-13T15:45:25;9.10;99.90
26691;DHT22;14307;51.718;8.938;2023-02-13T15:47:52;9.10;99.90
26691;DHT22;14307;51.718;8.938;2023-02-13T15:50:30;9.10;99.90
26691;DHT22;14307;51.718;8.938;2023-02-13T15:52:59;9.20;99.90
26691;DHT22;14307;51.718;8.938;2023-02-13T15:55:31;9.10;99.90
26691;DHT22;14307;51.718;8.938;2023-02-13T15:57:59;9.10;99.90
26691;DHT22;14307;51.718;8.938;2023-02-13T16:00:38;9.10;99.90
26691;DHT22;14307;51.718;8.938;2023-02-13T16:03:10;9.10;99.90
26691;DHT22;14307;51.718;8.938;2023-02-13T16:05:39;9.10;99.90
26691;DHT22;14307;51.718;8.938;2023-02-13T16:08:32;9.20;99.90
26691;DHT22;14307;51.718;8.938;2023-02-13T16:11:16;9.00;99.90
26691;DHT22;14307;51.718;8.938;2023-02-13T16:14:00;8.80;99.90
26691;DHT22;14307;51.718;8.938;2023-02-13T16:16:32;8.70;99.90
26691;DHT22;14307;51.718;8.938;2023-02-13T16:19:00;8.60;99.90
26691;DHT22;14307;51.718;8.938;2023-02-13T16:21:28;8.60;99.90
26691;DHT22;14307;51.718;8.938;2023-02-13T16:24:02;8.60;99.90
26691;DHT22;14307;51.718;8.938;2023-02-13T16:26:29;8.40;99.90
26691;DHT22;14307;51.718;8.938;2023-02-13T16:28:56;8.30;99.90
26691;DHT22;14307;51.718;8.938;2023-02-13T16:31:23;8.20;99.90
26691;DHT22;14307;51.718;8.938;2023-02-13T16:33:50;8.20;99.90
26691;DHT22;14307;51.718;8.938;2023-02-13T16:36:25;8.10;99.90
26691;DHT22;14307;51.718;8.938;2023-02-13T16:38:53;8.10;99.90
26691;DHT22;14307;51.718;8.938;2023-02-13T16:43:55;7.90;99.90
26691;DHT22;14307;51.718;8.938;2023-02-13T16:59:22;7.00;99.90
26691;DHT22;14307;51.718;8.938;2023-02-13T17:07:38;6.70;99.90
26691;DHT22;14307;51.718;8.938;2023-02-13T17:10:10;6.50;99.90
26691;DHT22;14307;51.718;8.938;2023-02-13T17:12:44;6.50;99.90
26691;DHT22;14307;51.718;8.938;2023-02-13T17:15:12;6.40;99.90
26691;DHT22;14307;51.718;8.938;2023-02-13T17:17:40;6.50;99.90
26691;DHT22;14307;51.718;8.938;2023-02-13T17:20:12;6.40;99.90
26691;DHT22;14307;51.718;8.938;2023-02-13T17:22:49;6.40;99.90
26691;DHT22;14307;51.718;8.938;2023-02-13T17:25:26;6.30;99.90
26691;DHT22;14307;51.718;8.938;2023-02-13T17:27:58;6.30;99.90
26691;DHT22;14307;51.718;8.938;2023-02-13T17:30:28;6.10;99.90
26691;DHT22;14307;51.718;8.938;2023-02-13T17:33:02;6.00;99.90
26691;DHT22;14307;51.718;8.938;2023-02-13T17:35:30;5.90;99.90
26691;DHT22;14307;51.718;8.938;2023-02-13T17:37:57;5.80;99.90
26691;DHT22;14307;51.718;8.938;2023-02-13T17:40:24;5.70;99.90
26691;DHT22;14307;51.718;8.938;2023-02-13T17:42:56;5.70;99.90
26691;DHT22;14307;51.718;8.938;2023-02-13T17:45:26;5.70;99.90
26691;DHT22;14307;51.718;8.938;2023-02-13T17:47:54;5.60;99.90
26691;DHT22;14307;51.718;8.938;2023-02-13T17:50:21;5.40;99.90
26691;DHT22;14307;51.718;8.938;2023-02-13T17:52:47;5.30;99.90
26691;DHT22;14307;51.718;8.938;2023-02-13T17:55:26;5.20;99.90
26691;DHT22;14307;51.718;8.938;2023-02-13T17:57:54;5.20;99.90
26691;DHT22;14307;51.718;8.938;2023-02-13T18:00:27;5.20;99.90
26691;DHT22;14307;51.718;8.938;2023-02-13T18:02:55;5.10;99.90
26691;DHT22;14307;51.718;8.938;2023-02-13T18:05:22;5.00;99.90
26691;DHT22;14307;51.718;8.938;2023-02-13T18:07:48;5.00;99.90
26691;DHT22;14307;51.718;8.938;2023-02-13T18:10:18;5.00;99.90
26691;DHT22;14307;51.718;8.938;2023-02-13T18:12:47;4.90;99.90
26691;DHT22;14307;51.718;8.938;2023-02-13T18:15:15;4.90;99.90
26691;DHT22;14307;51.718;8.938;2023-02-13T18:17:42;4.90;99.90
26691;DHT22;14307;51.718;8.938;2023-02-13T18:20:12;4.90;99.90
26691;DHT22;14307;51.718;8.938;2023-02-13T18:22:40;5.00;99.90
26691;DHT22;14307;51.718;8.938;2023-02-13T18:25:07;4.80;99.90
26691;DHT22;14307;51.718;8.938;2023-02-13T18:27:34;4.70;99.90
26691;DHT22;14307;51.718;8.938;2023-02-13T18:30:02;4.70;99.90